sensor_id;sensor_type;location;lat;lon;timestamp;pressure;altitude;pressure_sealevel;temperature;humidity
31005;BME280;17676;52.254;4.490;2023-03-21T00:01:34;101564.91;;;9.78;49.35
31005;BME280;17676;52.254;4.490;2023-03-21T00:04:01;101544.88;;;9.72;49.38
31005;BME280;17676;52.254;4.490;2023-03-21T00:06:27;101541.69;;;9.69;49.29
31005;BME280;17676;52.254;4.490;2023-03-21T00:08:52;101539.56;;;9.79;49.08
31005;BME280;17676;52.254;4.490;2023-03-21T00:11:18;101541.81;;;9.75;48.91
31005;BME280;17676;52.254;4.490;2023-03-21T00:13:43;101549.06;;;9.75;48.85
31005;BME280;17676;52.254;4.490;2023-03-21T00:16:12;101535.25;;;9.70;48.78
31005;BME280;17676;52.254;4.490;2023-03-21T00:18:46;101538.69;;;9.78;48.48
31005;BME280;17676;52.254;4.490;2023-03-21T00:21:15;101542.63;;;9.76;48.51
31005;BME280;17676;52.254;4.490;2023-03-21T00:23:41;101532.38;;;9.71;48.80
31005;BME280;17676;52.254;4.490;2023-03-21T00:26:08;101541.31;;;9.72;48.71
31005;BME280;17676;52.254;4.490;2023-03-21T00:28:38;101540.50;;;9.71;48.62
31005;BME280;17676;52.254;4.490;2023-03-21T00:31:06;101533.38;;;9.70;48.32
31005;BME280;17676;52.254;4.490;2023-03-21T00:33:33;101539.91;;;9.76;48.12
31005;BME280;17676;52.254;4.490;2023-03-21T00:35:59;101525.75;;;9.74;48.05
31005;BME280;17676;52.254;4.490;2023-03-21T00:38:25;101529.94;;;9.76;48.03
31005;BME280;17676;52.254;4.490;2023-03-21T00:40:53;101531.16;;;9.74;48.20
31005;BME280;17676;52.254;4.490;2023-03-21T00:43:20;101531.81;;;9.76;48.03
31005;BME280;17676;52.254;4.490;2023-03-21T00:45:55;101522.38;;;9.72;48.55
31005;BME280;17676;52.254;4.490;2023-03-21T00:48:23;101521.66;;;9.78;48.40
31005;BME280;17676;52.254;4.490;2023-03-21T00:50:50;101514.59;;;9.77;48.18
31005;BME280;17676;52.254;4.490;2023-03-21T00:53:17;101512.69;;;9.77;47.96
31005;BME280;17676;52.254;4.490;2023-03-21T00:55:43;101512.50;;;9.79;47.80
31005;BME280;17676;52.254;4.490;2023-03-21T00:58:08;101517.75;;;9.80;47.58
31005;BME280;17676;52.254;4.490;2023-03-21T01:00:34;101508.69;;;9.88;47.32
31005;BME280;17676;52.254;4.490;2023-03-21T01:03:04;101505.25;;;9.94;47.08
31005;BME280;17676;52.254;4.490;2023-03-21T01:05:38;101503.47;;;9.86;47.24
31005;BME280;17676;52.254;4.490;2023-03-21T01:08:23;101503.56;;;9.93;47.03
31005;BME280;17676;52.254;4.490;2023-03-21T01:10:49;101498.97;;;9.93;47.05
31005;BME280;17676;52.254;4.490;2023-03-21T01:13:17;101498.53;;;9.90;47.05
31005;BME280;17676;52.254;4.490;2023-03-21T01:15:45;101497.94;;;9.94;47.02
31005;BME280;17676;52.254;4.490;2023-03-21T01:18:12;101504.22;;;9.95;47.26
31005;BME280;17676;52.254;4.490;2023-03-21T01:20:43;101493.94;;;9.90;47.41
31005;BME280;17676;52.254;4.490;2023-03-21T01:23:10;101489.03;;;9.94;47.35
31005;BME280;17676;52.254;4.490;2023-03-21T01:25:36;101483.25;;;9.97;47.25
31005;BME280;17676;52.254;4.490;2023-03-21T01:28:02;101482.75;;;9.93;47.32
31005;BME280;17676;52.254;4.490;2023-03-21T01:30:28;101485.28;;;9.95;47.32
31005;BME280;17676;52.254;4.490;2023-03-21T01:32:53;101469.91;;;9.95;47.30
31005;BME280;17676;52.254;4.490;2023-03-21T01:35:18;101479.59;;;9.90;47.53
31005;BME280;17676;52.254;4.490;2023-03-21T01:37:44;101472.97;;;9.92;47.47
31005;BME280;17676;52.254;4.490;2023-03-21T01:40:22;101472.44;;;9.97;47.46
31005;BME280;17676;52.254;4.490;2023-03-21T01:42:48;101469.06;;;9.95;47.56
31005;BME280;17676;52.254;4.490;2023-03-21T01:48:18;101469.84;;;9.89;47.73
31005;BME280;17676;52.254;4.490;2023-03-21T01:50:45;101468.78;;;9.90;47.91
31005;BME280;17676;52.254;4.490;2023-03-21T01:53:11;101466.28;;;9.88;47.80
31005;BME280;17676;52.254;4.490;2023-03-21T01:55:38;101459.91;;;9.96;47.77
31005;BME280;17676;52.254;4.490;2023-03-21T01:58:05;101460.75;;;9.96;47.87
31005;BME280;17676;52.254;4.490;2023-03-21T02:00:33;101458.31;;;10.01;47.93
31005;BME280;17676;52.254;4.490;2023-03-21T02:03:00;101455.16;;;9.98;48.39
31005;BME280;17676;52.254;4.490;2023-03-21T02:05:36;101455.00;;;9.99;48.88
31005;BME280;17676;52.254;4.490;2023-03-21T02:08:06;101441.47;;;9.99;49.18
31005;BME280;17676;52.254;4.490;2023-03-21T02:10:32;101444.16;;;9.99;49.40
31005;BME280;17676;52.254;4.490;2023-03-21T02:13:01;101439.56;;;10.00;49.70
31005;BME280;17676;52.254;4.490;2023-03-21T02:15:35;101444.28;;;10.06;49.89
31005;BME280;17676;52.254;4.490;2023-03-21T02:18:33;101442.59;;;10.05;50.24
31005;BME280;17676;52.254;4.490;2023-03-21T02:32:46;101428.69;;;10.08;52.34
31005;BME280;17676;52.254;4.490;2023-03-21T02:43:41;101418.28;;;10.05;53.93
31005;BME280;17676;52.254;4.490;2023-03-21T02:46:19;101417.38;;;10.04;54.17
31005;BME280;17676;52.254;4.490;2023-03-21T02:49:08;101410.31;;;10.03;54.46
31005;BME280;17676;52.254;4.490;2023-03-21T02:51:37;101401.34;;;10.03;54.55
31005;BME280;17676;52.254;4.490;2023-03-21T02:54:13;101405.09;;;10.02;54.69
31005;BME280;17676;52.254;4.490;2023-03-21T02:56:40;101401.72;;;10.00;54.90
31005;BME280;17676;52.254;4.490;2023-03-21T02:59:07;101398.38;;;9.98;55.10
31005;BME280;17676;52.254;4.490;2023-03-21T03:01:34;101402.69;;;9.92;55.33
31005;BME280;17676;52.254;4.490;2023-03-21T03:03:59;101397.91;;;9.94;55.32
31005;BME280;17676;52.254;4.490;2023-03-21T03:06:29;101395.69;;;9.98;55.25
31005;BME280;17676;52.254;4.490;2023-03-21T03:11:36;101386.66;;;9.91;55.44
31005;BME280;17676;52.254;4.490;2023-03-21T03:14:18;101399.34;;;10.05;55.20
31005;BME280;17676;52.254;4.490;2023-03-21T03:23:15;101388.53;;;10.05;55.66
31005;BME280;17676;52.254;4.490;2023-03-21T03:25:51;101376.28;;;9.94;55.96
31005;BME280;17676;52.254;4.490;2023-03-21T03:28:22;101388.13;;;10.08;55.86
31005;BME280;17676;52.254;4.490;2023-03-21T03:30:50;101379.28;;;9.99;56.16
31005;BME280;17676;52.254;4.490;2023-03-21T03:33:16;101381.38;;;10.04;56.35
31005;BME280;17676;52.254;4.490;2023-03-21T03:35:48;101386.72;;;9.97;57.03
31005;BME280;17676;52.254;4.490;2023-03-21T03:38:14;101387.47;;;10.06;56.86
31005;BME280;17676;52.254;4.490;2023-03-21T03:40:44;101386.28;;;9.94;57.69
31005;BME280;17676;52.254;4.490;2023-03-21T03:43:16;101389.59;;;9.96;57.66
31005;BME280;17676;52.254;4.490;2023-03-21T03:45:46;101380.88;;;9.94;58.03
31005;BME280;17676;52.254;4.490;2023-03-21T03:48:24;101380.19;;;9.92;58.16
31005;BME280;17676;52.254;4.490;2023-03-21T03:51:02;101380.50;;;9.97;58.18
31005;BME280;17676;52.254;4.490;2023-03-21T03:53:56;101383.19;;;9.97;58.49
31005;BME280;17676;52.254;4.490;2023-03-21T03:56:24;101381.31;;;9.97;58.62
31005;BME280;17676;52.254;4.490;2023-03-21T03:58:50;101388.53;;;10.05;58.45
31005;BME280;17676;52.254;4.490;2023-03-21T04:01:15;101381.91;;;9.93;59.19
31005;BME280;17676;52.254;4.490;2023-03-21T04:03:44;101378.16;;;9.94;59.20
31005;BME280;17676;52.254;4.490;2023-03-21T04:06:12;101377.69;;;9.90;59.44
31005;BME280;17676;52.254;4.490;2023-03-21T04:08:37;101364.75;;;9.86;59.53
31005;BME280;17676;52.254;4.490;2023-03-21T04:11:03;101373.38;;;9.96;59.42
31005;BME280;17676;52.254;4.490;2023-03-21T04:13:29;101379.56;;;9.90;59.90
31005;BME280;17676;52.254;4.490;2023-03-21T04:15:54;101374.16;;;9.90;59.98
31005;BME280;17676;52.254;4.490;2023-03-21T04:18:20;101370.88;;;9.94;59.89
31005;BME280;17676;52.254;4.490;2023-03-21T04:20:48;101376.50;;;9.93;60.09
31005;BME280;17676;52.254;4.490;2023-03-21T04:23:15;101371.09;;;9.93;60.18
31005;BME280;17676;52.254;4.490;2023-03-21T04:25:41;101367.91;;;9.89;60.46
31005;BME280;17676;52.254;4.490;2023-03-21T04:28:07;101371.66;;;9.88;60.67
31005;BME280;17676;52.254;4.490;2023-03-21T04:30:32;101372.50;;;9.89;60.70
31005;BME280;17676;52.254;4.490;2023-03-21T04:32:59;101367.47;;;9.86;60.94
31005;BME280;17676;52.254;4.490;2023-03-21T04:35:25;101365.81;;;9.85;61.18
31005;BME280;17676;52.254;4.490;2023-03-21T04:37:51;101357.81;;;9.77;61.72
31005;BME280;17676;52.254;4.490;2023-03-21T04:40:18;101362.28;;;9.70;62.18
31005;BME280;17676;52.254;4.490;2023-03-21T04:42:44;101359.41;;;9.71;62.00
31005;BME280;17676;52.254;4.490;2023-03-21T04:45:10;101356.50;;;9.73;61.91
31005;BME280;17676;52.254;4.490;2023-03-21T04:47:35;101352.84;;;9.80;61.70
31005;BME280;17676;52.254;4.490;2023-03-21T04:50:01;101353.91;;;9.65;62.78
31005;BME280;17676;52.254;4.490;2023-03-21T04:52:27;101357.25;;;9.67;62.76
31005;BME280;17676;52.254;4.490;2023-03-21T04:54:52;101354.00;;;9.71;62.79
31005;BME280;17676;52.254;4.490;2023-03-21T04:57:18;101349.81;;;9.69;63.16
31005;BME280;17676;52.254;4.490;2023-03-21T04:59:43;101352.97;;;9.72;63.13
31005;BME280;17676;52.254;4.490;2023-03-21T05:02:08;101352.09;;;9.72;63.51
31005;BME280;17676;52.254;4.490;2023-03-21T05:04:34;101335.63;;;9.67;63.76
31005;BME280;17676;52.254;4.490;2023-03-21T05:07:00;101342.34;;;9.71;63.89
31005;BME280;17676;52.254;4.490;2023-03-21T05:09:25;101348.00;;;9.76;64.29
31005;BME280;17676;52.254;4.490;2023-03-21T05:11:52;101345.09;;;9.77;64.51
31005;BME280;17676;52.254;4.490;2023-03-21T05:14:20;101347.63;;;9.79;64.80
31005;BME280;17676;52.254;4.490;2023-03-21T05:16:46;101341.19;;;9.80;65.10
31005;BME280;17676;52.254;4.490;2023-03-21T05:19:28;101351.09;;;9.73;66.37
31005;BME280;17676;52.254;4.490;2023-03-21T05:22:04;101351.63;;;9.83;65.99
31005;BME280;17676;52.254;4.490;2023-03-21T05:24:30;101355.72;;;9.79;66.83
31005;BME280;17676;52.254;4.490;2023-03-21T05:26:57;101349.84;;;9.90;66.63
31005;BME280;17676;52.254;4.490;2023-03-21T05:29:27;101338.75;;;9.85;67.08
31005;BME280;17676;52.254;4.490;2023-03-21T05:31:52;101349.19;;;9.88;67.98
31005;BME280;17676;52.254;4.490;2023-03-21T05:34:18;101348.06;;;9.82;69.03
31005;BME280;17676;52.254;4.490;2023-03-21T05:36:43;101347.88;;;9.84;69.57
31005;BME280;17676;52.254;4.490;2023-03-21T05:39:09;101348.81;;;9.91;69.92
31005;BME280;17676;52.254;4.490;2023-03-21T05:41:34;101356.47;;;9.87;70.77
31005;BME280;17676;52.254;4.490;2023-03-21T05:44:00;101347.75;;;9.92;71.08
31005;BME280;17676;52.254;4.490;2023-03-21T05:46:26;101346.75;;;9.93;71.88
31005;BME280;17676;52.254;4.490;2023-03-21T05:48:51;101355.88;;;9.92;72.87
31005;BME280;17676;52.254;4.490;2023-03-21T05:51:17;101349.66;;;9.91;73.80
31005;BME280;17676;52.254;4.490;2023-03-21T05:53:42;101350.75;;;9.97;74.30
31005;BME280;17676;52.254;4.490;2023-03-21T05:56:08;101348.44;;;9.94;75.47
31005;BME280;17676;52.254;4.490;2023-03-21T05:58:34;101354.47;;;9.96;76.29
31005;BME280;17676;52.254;4.490;2023-03-21T06:00:59;101343.75;;;9.88;77.75
31005;BME280;17676;52.254;4.490;2023-03-21T06:03:25;101353.34;;;9.90;78.57
31005;BME280;17676;52.254;4.490;2023-03-21T06:05:50;101345.91;;;9.92;79.51
31005;BME280;17676;52.254;4.490;2023-03-21T06:08:16;101342.22;;;10.00;79.82
31005;BME280;17676;52.254;4.490;2023-03-21T06:10:41;101338.84;;;9.91;81.96
31005;BME280;17676;52.254;4.490;2023-03-21T06:13:07;101336.69;;;9.87;83.46
31005;BME280;17676;52.254;4.490;2023-03-21T06:15:32;101339.13;;;9.82;84.53
31005;BME280;17676;52.254;4.490;2023-03-21T06:17:57;101344.44;;;9.90;84.85
31005;BME280;17676;52.254;4.490;2023-03-21T06:20:23;101343.38;;;9.91;85.71
31005;BME280;17676;52.254;4.490;2023-03-21T06:22:48;101345.47;;;9.89;86.90
31005;BME280;17676;52.254;4.490;2023-03-21T06:25:14;101336.44;;;9.82;88.66
31005;BME280;17676;52.254;4.490;2023-03-21T06:27:39;101340.06;;;9.89;89.14
31005;BME280;17676;52.254;4.490;2023-03-21T06:30:05;101335.53;;;9.96;89.32
31005;BME280;17676;52.254;4.490;2023-03-21T06:32:31;101332.19;;;9.94;91.20
31005;BME280;17676;52.254;4.490;2023-03-21T06:34:56;101325.13;;;9.93;92.59
31005;BME280;17676;52.254;4.490;2023-03-21T06:37:22;101339.03;;;9.90;94.42
31005;BME280;17676;52.254;4.490;2023-03-21T06:39:47;101323.00;;;9.88;95.76
31005;BME280;17676;52.254;4.490;2023-03-21T06:42:13;101330.25;;;9.88;97.42
31005;BME280;17676;52.254;4.490;2023-03-21T06:44:38;101327.84;;;9.93;98.30
31005;BME280;17676;52.254;4.490;2023-03-21T06:47:05;101325.03;;;9.86;100.00
31005;BME280;17676;52.254;4.490;2023-03-21T06:49:30;101302.97;;;9.83;100.00
31005;BME280;17676;52.254;4.490;2023-03-21T06:51:55;101324.28;;;9.92;100.00
31005;BME280;17676;52.254;4.490;2023-03-21T06:54:21;101318.34;;;9.82;100.00
31005;BME280;17676;52.254;4.490;2023-03-21T06:56:47;101309.53;;;9.74;100.00
31005;BME280;17676;52.254;4.490;2023-03-21T06:59:12;101305.41;;;9.78;100.00
31005;BME280;17676;52.254;4.490;2023-03-21T07:01:37;101300.38;;;9.75;100.00
31005;BME280;17676;52.254;4.490;2023-03-21T07:04:03;101301.28;;;9.82;100.00
31005;BME280;17676;52.254;4.490;2023-03-21T07:06:31;101314.75;;;9.75;100.00
31005;BME280;17676;52.254;4.490;2023-03-21T07:08:58;101302.47;;;9.73;100.00
31005;BME280;17676;52.254;4.490;2023-03-21T07:11:23;101294.22;;;9.81;100.00
31005;BME280;17676;52.254;4.490;2023-03-21T07:13:49;101297.63;;;9.89;100.00
31005;BME280;17676;52.254;4.490;2023-03-21T07:16:17;101303.50;;;9.93;100.00
31005;BME280;17676;52.254;4.490;2023-03-21T07:18:44;101297.81;;;9.88;100.00
31005;BME280;17676;52.254;4.490;2023-03-21T07:21:09;101296.81;;;9.89;100.00
31005;BME280;17676;52.254;4.490;2023-03-21T07:23:35;101287.13;;;9.80;100.00
31005;BME280;17676;52.254;4.490;2023-03-21T07:26:02;101294.47;;;9.86;100.00
31005;BME280;17676;52.254;4.490;2023-03-21T07:28:28;101286.63;;;9.91;100.00
31005;BME280;17676;52.254;4.490;2023-03-21T07:30:58;101281.22;;;9.91;100.00
31005;BME280;17676;52.254;4.490;2023-03-21T07:33:24;101279.66;;;9.82;100.00
31005;BME280;17676;52.254;4.490;2023-03-21T07:35:52;101283.47;;;9.87;100.00
31005;BME280;17676;52.254;4.490;2023-03-21T07:38:18;101276.38;;;9.86;100.00
31005;BME280;17676;52.254;4.490;2023-03-21T07:40:45;101270.78;;;9.88;100.00
31005;BME280;17676;52.254;4.490;2023-03-21T07:43:15;101273.47;;;9.88;100.00
31005;BME280;17676;52.254;4.490;2023-03-21T07:45:41;101275.31;;;9.81;100.00
31005;BME280;17676;52.254;4.490;2023-03-21T07:48:11;101273.09;;;9.91;100.00
31005;BME280;17676;52.254;4.490;2023-03-21T07:50:42;101268.53;;;9.91;100.00
31005;BME280;17676;52.254;4.490;2023-03-21T07:53:07;101265.91;;;9.98;100.00
31005;BME280;17676;52.254;4.490;2023-03-21T07:55:33;101268.34;;;9.93;100.00
31005;BME280;17676;52.254;4.490;2023-03-21T07:58:03;101257.66;;;9.85;100.00
31005;BME280;17676;52.254;4.490;2023-03-21T08:00:29;101256.88;;;9.91;100.00
31005;BME280;17676;52.254;4.490;2023-03-21T08:02:56;101251.56;;;10.04;100.00
31005;BME280;17676;52.254;4.490;2023-03-21T08:05:22;101255.22;;;9.90;100.00
31005;BME280;17676;52.254;4.490;2023-03-21T08:07:49;101253.53;;;9.89;100.00
31005;BME280;17676;52.254;4.490;2023-03-21T08:10:18;101255.31;;;10.03;100.00
31005;BME280;17676;52.254;4.490;2023-03-21T08:12:44;101256.69;;;9.92;100.00
31005;BME280;17676;52.254;4.490;2023-03-21T08:15:20;101252.38;;;9.98;100.00
31005;BME280;17676;52.254;4.490;2023-03-21T08:17:46;101248.78;;;10.12;100.00
31005;BME280;17676;52.254;4.490;2023-03-21T08:20:17;101249.28;;;10.22;100.00
31005;BME280;17676;52.254;4.490;2023-03-21T08:22:43;101246.47;;;10.37;100.00
31005;BME280;17676;52.254;4.490;2023-03-21T08:25:10;101246.72;;;10.42;100.00
31005;BME280;17676;52.254;4.490;2023-03-21T08:27:38;101249.09;;;10.24;100.00
31005;BME280;17676;52.254;4.490;2023-03-21T08:30:04;101236.03;;;10.34;100.00
31005;BME280;17676;52.254;4.490;2023-03-21T08:32:30;101242.66;;;10.25;100.00
31005;BME280;17676;52.254;4.490;2023-03-21T08:35:01;101243.97;;;10.35;100.00
31005;BME280;17676;52.254;4.490;2023-03-21T08:37:27;101237.13;;;10.39;100.00
31005;BME280;17676;52.254;4.490;2023-03-21T08:39:53;101235.94;;;10.48;100.00
31005;BME280;17676;52.254;4.490;2023-03-21T08:42:19;101239.72;;;10.54;100.00
31005;BME280;17676;52.254;4.490;2023-03-21T08:44:46;101234.69;;;10.78;100.00
31005;BME280;17676;52.254;4.490;2023-03-21T08:47:12;101225.03;;;10.69;100.00
31005;BME280;17676;52.254;4.490;2023-03-21T08:49:37;101234.44;;;10.73;100.00
31005;BME280;17676;52.254;4.490;2023-03-21T08:52:02;101235.97;;;10.82;100.00
31005;BME280;17676;52.254;4.490;2023-03-21T08:54:28;101227.63;;;10.84;100.00
31005;BME280;17676;52.254;4.490;2023-03-21T08:56:54;101215.09;;;10.76;100.00
31005;BME280;17676;52.254;4.490;2023-03-21T08:59:19;101222.41;;;10.82;100.00
31005;BME280;17676;52.254;4.490;2023-03-21T09:01:45;101210.59;;;10.96;100.00
31005;BME280;17676;52.254;4.490;2023-03-21T09:04:11;101211.09;;;11.13;100.00
31005;BME280;17676;52.254;4.490;2023-03-21T09:06:37;101207.50;;;11.06;100.00
31005;BME280;17676;52.254;4.490;2023-03-21T09:09:03;101212.78;;;11.20;100.00
31005;BME280;17676;52.254;4.490;2023-03-21T09:11:32;101205.75;;;11.45;100.00
31005;BME280;17676;52.254;4.490;2023-03-21T09:13:57;101199.56;;;11.64;100.00
31005;BME280;17676;52.254;4.490;2023-03-21T09:16:23;101194.94;;;11.58;100.00
31005;BME280;17676;52.254;4.490;2023-03-21T09:18:50;101186.59;;;11.60;100.00
31005;BME280;17676;52.254;4.490;2023-03-21T09:21:20;101184.56;;;11.62;100.00
31005;BME280;17676;52.254;4.490;2023-03-21T09:23:48;101179.16;;;11.62;100.00
31005;BME280;17676;52.254;4.490;2023-03-21T09:26:17;101171.63;;;11.70;100.00
31005;BME280;17676;52.254;4.490;2023-03-21T09:28:43;101183.34;;;12.03;100.00
31005;BME280;17676;52.254;4.490;2023-03-21T09:31:11;101177.69;;;11.92;100.00
31005;BME280;17676;52.254;4.490;2023-03-21T09:33:38;101164.53;;;11.69;100.00
31005;BME280;17676;52.254;4.490;2023-03-21T09:36:08;101155.72;;;11.54;100.00
31005;BME280;17676;52.254;4.490;2023-03-21T09:38:39;101149.13;;;11.76;100.00
31005;BME280;17676;52.254;4.490;2023-03-21T09:47:09;101164.13;;;11.85;100.00
31005;BME280;17676;52.254;4.490;2023-03-21T09:49:43;101150.56;;;11.72;100.00
31005;BME280;17676;52.254;4.490;2023-03-21T09:52:21;101149.50;;;11.86;100.00
31005;BME280;17676;52.254;4.490;2023-03-21T09:54:48;101148.69;;;11.92;100.00
31005;BME280;17676;52.254;4.490;2023-03-21T09:57:32;101145.34;;;12.03;100.00
31005;BME280;17676;52.254;4.490;2023-03-21T10:00:06;101163.47;;;12.22;100.00
31005;BME280;17676;52.254;4.490;2023-03-21T10:02:48;101161.59;;;12.23;100.00
31005;BME280;17676;52.254;4.490;2023-03-21T10:05:22;101153.69;;;12.15;100.00
31005;BME280;17676;52.254;4.490;2023-03-21T10:07:53;101160.38;;;12.12;100.00
31005;BME280;17676;52.254;4.490;2023-03-21T10:10:25;101160.38;;;12.12;100.00
31005;BME280;17676;52.254;4.490;2023-03-21T10:12:54;101142.00;;;12.08;100.00
31005;BME280;17676;52.254;4.490;2023-03-21T10:15:23;101140.13;;;12.15;100.00
31005;BME280;17676;52.254;4.490;2023-03-21T10:20:27;101151.16;;;12.26;100.00
31005;BME280;17676;52.254;4.490;2023-03-21T10:22:57;101134.44;;;12.29;100.00
31005;BME280;17676;52.254;4.490;2023-03-21T10:25:39;101154.47;;;12.41;100.00
31005;BME280;17676;52.254;4.490;2023-03-21T10:28:08;101156.56;;;12.46;100.00
31005;BME280;17676;52.254;4.490;2023-03-21T10:30:51;101161.09;;;12.58;100.00
31005;BME280;17676;52.254;4.490;2023-03-21T10:33:21;101154.63;;;12.53;100.00
31005;BME280;17676;52.254;4.490;2023-03-21T10:35:51;101160.31;;;12.32;100.00
31005;BME280;17676;52.254;4.490;2023-03-21T10:38:21;101159.50;;;12.31;100.00
31005;BME280;17676;52.254;4.490;2023-03-21T10:40:47;101169.94;;;12.28;100.00
31005;BME280;17676;52.254;4.490;2023-03-21T10:45:55;101153.63;;;12.34;100.00
31005;BME280;17676;52.254;4.490;2023-03-21T10:48:22;101147.41;;;12.27;100.00
31005;BME280;17676;52.254;4.490;2023-03-21T10:50:50;101168.25;;;12.40;100.00
31005;BME280;17676;52.254;4.490;2023-03-21T10:53:20;101144.03;;;12.32;100.00
31005;BME280;17676;52.254;4.490;2023-03-21T10:55:53;101143.84;;;12.27;100.00
31005;BME280;17676;52.254;4.490;2023-03-21T10:58:45;101136.13;;;12.17;100.00
31005;BME280;17676;52.254;4.490;2023-03-21T11:01:20;101132.81;;;12.22;100.00
31005;BME280;17676;52.254;4.490;2023-03-21T11:03:58;101146.13;;;12.36;100.00
31005;BME280;17676;52.254;4.490;2023-03-21T11:06:31;101131.91;;;12.34;100.00
31005;BME280;17676;52.254;4.490;2023-03-21T11:09:08;101129.03;;;12.29;100.00
31005;BME280;17676;52.254;4.490;2023-03-21T11:11:50;101120.28;;;12.27;100.00
31005;BME280;17676;52.254;4.490;2023-03-21T11:14:25;101130.06;;;12.28;100.00
31005;BME280;17676;52.254;4.490;2023-03-21T11:16:52;101105.25;;;12.18;100.00
31005;BME280;17676;52.254;4.490;2023-03-21T11:19:25;101104.41;;;12.24;100.00
31005;BME280;17676;52.254;4.490;2023-03-21T11:21:52;101112.28;;;12.39;100.00
31005;BME280;17676;52.254;4.490;2023-03-21T11:24:21;101103.88;;;12.53;100.00
31005;BME280;17676;52.254;4.490;2023-03-21T11:26:48;101118.63;;;12.77;100.00
31005;BME280;17676;52.254;4.490;2023-03-21T11:29:37;101135.63;;;13.41;100.00
31005;BME280;17676;52.254;4.490;2023-03-21T11:32:33;101124.81;;;13.65;100.00
31005;BME280;17676;52.254;4.490;2023-03-21T11:35:11;101125.81;;;13.71;100.00
31005;BME280;17676;52.254;4.490;2023-03-21T11:37:54;101139.19;;;13.72;100.00
31005;BME280;17676;52.254;4.490;2023-03-21T11:40:33;101125.00;;;13.64;100.00
31005;BME280;17676;52.254;4.490;2023-03-21T11:43:24;101116.06;;;13.32;100.00
31005;BME280;17676;52.254;4.490;2023-03-21T11:46:21;101109.09;;;13.05;100.00
31005;BME280;17676;52.254;4.490;2023-03-21T11:48:47;101100.31;;;13.03;100.00
31005;BME280;17676;52.254;4.490;2023-03-21T11:51:36;101108.69;;;13.08;100.00
31005;BME280;17676;52.254;4.490;2023-03-21T11:56:55;101105.22;;;13.26;100.00
31005;BME280;17676;52.254;4.490;2023-03-21T11:59:32;101087.53;;;13.41;100.00
31005;BME280;17676;52.254;4.490;2023-03-21T12:05:32;101073.50;;;14.11;100.00
31005;BME280;17676;52.254;4.490;2023-03-21T12:16:11;101072.72;;;14.47;100.00
31005;BME280;17676;52.254;4.490;2023-03-21T12:24:52;101065.97;;;13.71;100.00
31005;BME280;17676;52.254;4.490;2023-03-21T12:30:44;101055.28;;;13.45;100.00
31005;BME280;17676;52.254;4.490;2023-03-21T12:36:15;101071.56;;;13.94;100.00
31005;BME280;17676;52.254;4.490;2023-03-21T12:39:11;101064.69;;;13.73;100.00
31005;BME280;17676;52.254;4.490;2023-03-21T12:41:59;101070.25;;;13.60;100.00
31005;BME280;17676;52.254;4.490;2023-03-21T12:44:34;101053.34;;;13.27;100.00
31005;BME280;17676;52.254;4.490;2023-03-21T12:47:19;101043.91;;;13.05;100.00
31005;BME280;17676;52.254;4.490;2023-03-21T12:52:45;101054.00;;;13.23;100.00
31005;BME280;17676;52.254;4.490;2023-03-21T12:55:26;101053.44;;;13.14;100.00
31005;BME280;17676;52.254;4.490;2023-03-21T12:58:00;101047.91;;;13.27;100.00
31005;BME280;17676;52.254;4.490;2023-03-21T13:03:02;101038.94;;;13.27;100.00
31005;BME280;17676;52.254;4.490;2023-03-21T13:05:43;101044.91;;;13.35;100.00
31005;BME280;17676;52.254;4.490;2023-03-21T13:08:23;101018.88;;;13.46;100.00
31005;BME280;17676;52.254;4.490;2023-03-21T13:10:51;101036.03;;;13.46;100.00
31005;BME280;17676;52.254;4.490;2023-03-21T13:13:30;101029.44;;;13.60;100.00
31005;BME280;17676;52.254;4.490;2023-03-21T13:26:47;101009.19;;;13.32;100.00
31005;BME280;17676;52.254;4.490;2023-03-21T13:29:31;101023.38;;;13.58;100.00
31005;BME280;17676;52.254;4.490;2023-03-21T13:32:42;101016.41;;;13.44;100.00
31005;BME280;17676;52.254;4.490;2023-03-21T13:35:19;101018.66;;;13.47;100.00
31005;BME280;17676;52.254;4.490;2023-03-21T13:37:57;101019.13;;;13.44;100.00
31005;BME280;17676;52.254;4.490;2023-03-21T13:40:37;101018.69;;;13.23;100.00
31005;BME280;17676;52.254;4.490;2023-03-21T13:43:31;101005.66;;;12.69;100.00
31005;BME280;17676;52.254;4.490;2023-03-21T13:49:12;100991.84;;;12.71;100.00
31005;BME280;17676;52.254;4.490;2023-03-21T13:51:56;100999.09;;;12.77;100.00
31005;BME280;17676;52.254;4.490;2023-03-21T13:57:04;100994.00;;;13.24;100.00
31005;BME280;17676;52.254;4.490;2023-03-21T13:59:48;100986.72;;;13.43;100.00
31005;BME280;17676;52.254;4.490;2023-03-21T14:02:35;100978.97;;;13.22;100.00
31005;BME280;17676;52.254;4.490;2023-03-21T14:05:13;100988.09;;;13.27;100.00
31005;BME280;17676;52.254;4.490;2023-03-21T14:07:56;101003.84;;;13.43;100.00
31005;BME280;17676;52.254;4.490;2023-03-21T14:10:36;100994.88;;;13.18;100.00
31005;BME280;17676;52.254;4.490;2023-03-21T14:13:06;100990.13;;;13.07;100.00
31005;BME280;17676;52.254;4.490;2023-03-21T14:15:44;101001.22;;;13.12;100.00
31005;BME280;17676;52.254;4.490;2023-03-21T14:18:21;100997.59;;;13.18;100.00
31005;BME280;17676;52.254;4.490;2023-03-21T14:20:53;101007.41;;;13.19;100.00
31005;BME280;17676;52.254;4.490;2023-03-21T14:23:19;101003.28;;;13.10;100.00
31005;BME280;17676;52.254;4.490;2023-03-21T14:25:46;101007.16;;;12.96;100.00
31005;BME280;17676;52.254;4.490;2023-03-21T14:28:23;101022.75;;;12.76;100.00
31005;BME280;17676;52.254;4.490;2023-03-21T14:30:52;101011.16;;;12.56;100.00
31005;BME280;17676;52.254;4.490;2023-03-21T14:33:25;101019.38;;;12.74;100.00
31005;BME280;17676;52.254;4.490;2023-03-21T14:35:54;101014.47;;;12.58;100.00
31005;BME280;17676;52.254;4.490;2023-03-21T14:38:23;101017.38;;;12.63;100.00